sensor_id;sensor_type;location;lat;lon;timestamp;temperature;humidity
68274;SHT30;55104;47.356;19.448;2023-04-28T00:00:16;3.59;80.98
68274;SHT30;55104;47.356;19.448;2023-04-28T00:03:18;3.57;81.85
68274;SHT30;55104;47.356;19.448;2023-04-28T00:06:22;3.56;82.04
68274;SHT30;55104;47.356;19.448;2023-04-28T00:09:24;3.56;81.72
68274;SHT30;55104;47.356;19.448;2023-04-28T00:12:26;3.55;80.92
68274;SHT30;55104;47.356;19.448;2023-04-28T00:15:28;3.53;81.20
68274;SHT30;55104;47.356;19.448;2023-04-28T00:18:31;3.50;80.82
68274;SHT30;55104;47.356;19.448;2023-04-28T00:21:35;3.40;81.88
68274;SHT30;55104;47.356;19.448;2023-04-28T00:24:37;3.35;82.46
68274;SHT30;55104;47.356;19.448;2023-04-28T00:27:39;3.35;82.94
68274;SHT30;55104;47.356;19.448;2023-04-28T00:30:41;3.28;83.19
68274;SHT30;55104;47.356;19.448;2023-04-28T00:33:43;3.30;83.00
68274;SHT30;55104;47.356;19.448;2023-04-28T00:36:46;3.29;82.18
68274;SHT30;55104;47.356;19.448;2023-04-28T00:39:48;3.25;82.03
68274;SHT30;55104;47.356;19.448;2023-04-28T00:42:50;3.16;81.65
68274;SHT30;55104;47.356;19.448;2023-04-28T00:45:52;3.18;82.65
68274;SHT30;55104;47.356;19.448;2023-04-28T00:48:55;3.16;83.22
68274;SHT30;55104;47.356;19.448;2023-04-28T00:51:59;3.11;83.31
68274;SHT30;55104;47.356;19.448;2023-04-28T00:55:04;3.05;83.22
68274;SHT30;55104;47.356;19.448;2023-04-28T00:58:08;3.02;83.16
68274;SHT30;55104;47.356;19.448;2023-04-28T01:01:10;3.02;83.69
68274;SHT30;55104;47.356;19.448;2023-04-28T01:04:12;3.09;82.76
68274;SHT30;55104;47.356;19.448;2023-04-28T01:07:16;3.00;83.16
68274;SHT30;55104;47.356;19.448;2023-04-28T01:10:18;2.94;83.67
68274;SHT30;55104;47.356;19.448;2023-04-28T01:13:21;2.90;83.30
68274;SHT30;55104;47.356;19.448;2023-04-28T01:16:23;2.88;83.81
68274;SHT30;55104;47.356;19.448;2023-04-28T01:19:27;2.85;83.69
68274;SHT30;55104;47.356;19.448;2023-04-28T01:22:30;2.87;83.36
68274;SHT30;55104;47.356;19.448;2023-04-28T01:25:33;2.80;84.45
68274;SHT30;55104;47.356;19.448;2023-04-28T01:28:35;2.80;83.67
68274;SHT30;55104;47.356;19.448;2023-04-28T01:31:37;2.74;83.44
68274;SHT30;55104;47.356;19.448;2023-04-28T01:34:40;2.73;83.21
68274;SHT30;55104;47.356;19.448;2023-04-28T01:37:42;2.67;83.05
68274;SHT30;55104;47.356;19.448;2023-04-28T01:40:44;2.66;83.72
68274;SHT30;55104;47.356;19.448;2023-04-28T01:43:46;2.67;84.15
68274;SHT30;55104;47.356;19.448;2023-04-28T01:46:48;2.66;83.83
68274;SHT30;55104;47.356;19.448;2023-04-28T01:49:50;2.58;84.20
68274;SHT30;55104;47.356;19.448;2023-04-28T01:52:52;2.60;83.67
68274;SHT30;55104;47.356;19.448;2023-04-28T01:55:54;2.52;83.99
68274;SHT30;55104;47.356;19.448;2023-04-28T01:58:56;2.52;83.77
68274;SHT30;55104;47.356;19.448;2023-04-28T02:01:58;2.47;84.09
68274;SHT30;55104;47.356;19.448;2023-04-28T02:05:01;2.43;84.45
68274;SHT30;55104;47.356;19.448;2023-04-28T02:08:03;2.47;84.04
68274;SHT30;55104;47.356;19.448;2023-04-28T02:11:05;2.46;83.65
68274;SHT30;55104;47.356;19.448;2023-04-28T02:14:08;2.43;84.28
68274;SHT30;55104;47.356;19.448;2023-04-28T02:17:09;2.43;84.28
68274;SHT30;55104;47.356;19.448;2023-04-28T02:20:12;2.43;84.76
68274;SHT30;55104;47.356;19.448;2023-04-28T02:23:15;2.39;85.35
68274;SHT30;55104;47.356;19.448;2023-04-28T02:26:17;2.39;85.13
68274;SHT30;55104;47.356;19.448;2023-04-28T02:29:19;2.37;84.53
68274;SHT30;55104;47.356;19.448;2023-04-28T02:32:21;2.35;85.28
68274;SHT30;55104;47.356;19.448;2023-04-28T02:35:25;2.35;84.95
68274;SHT30;55104;47.356;19.448;2023-04-28T02:38:27;2.33;84.83
68274;SHT30;55104;47.356;19.448;2023-04-28T02:41:29;2.32;84.46
68274;SHT30;55104;47.356;19.448;2023-04-28T02:44:32;2.25;84.14
68274;SHT30;55104;47.356;19.448;2023-04-28T02:47:34;2.21;84.69
68274;SHT30;55104;47.356;19.448;2023-04-28T02:50:36;2.12;85.76
68274;SHT30;55104;47.356;19.448;2023-04-28T02:53:38;2.18;85.35
68274;SHT30;55104;47.356;19.448;2023-04-28T02:56:40;2.18;85.01
68274;SHT30;55104;47.356;19.448;2023-04-28T02:59:42;2.14;85.27
68274;SHT30;55104;47.356;19.448;2023-04-28T03:02:44;2.18;85.51
68274;SHT30;55104;47.356;19.448;2023-04-28T03:05:47;2.21;84.91
68274;SHT30;55104;47.356;19.448;2023-04-28T03:08:50;2.19;84.48
68274;SHT30;55104;47.356;19.448;2023-04-28T03:11:53;2.26;84.60
68274;SHT30;55104;47.356;19.448;2023-04-28T03:14:56;2.28;84.41
68274;SHT30;55104;47.356;19.448;2023-04-28T03:17:58;2.25;84.46
68274;SHT30;55104;47.356;19.448;2023-04-28T03:21:00;2.29;84.75
68274;SHT30;55104;47.356;19.448;2023-04-28T03:24:03;2.26;85.16
68274;SHT30;55104;47.356;19.448;2023-04-28T03:27:06;2.29;84.75
68274;SHT30;55104;47.356;19.448;2023-04-28T03:30:11;2.36;84.73
68274;SHT30;55104;47.356;19.448;2023-04-28T03:33:14;2.39;84.51
68274;SHT30;55104;47.356;19.448;2023-04-28T03:36:16;2.43;84.46
68274;SHT30;55104;47.356;19.448;2023-04-28T03:39:18;2.43;84.21
68274;SHT30;55104;47.356;19.448;2023-04-28T03:42:20;2.45;84.84
68274;SHT30;55104;47.356;19.448;2023-04-28T03:45:30;2.58;84.16
68274;SHT30;55104;47.356;19.448;2023-04-28T03:48:33;2.67;83.94
68274;SHT30;55104;47.356;19.448;2023-04-28T03:51:35;2.79;83.83
68274;SHT30;55104;47.356;19.448;2023-04-28T03:54:37;2.90;83.28
68274;SHT30;55104;47.356;19.448;2023-04-28T03:57:39;3.12;82.67
68274;SHT30;55104;47.356;19.448;2023-04-28T04:00:41;3.23;82.48
68274;SHT30;55104;47.356;19.448;2023-04-28T04:03:43;3.32;82.33
68274;SHT30;55104;47.356;19.448;2023-04-28T04:06:46;3.42;82.17
68274;SHT30;55104;47.356;19.448;2023-04-28T04:09:48;3.44;82.07
68274;SHT30;55104;47.356;19.448;2023-04-28T04:12:51;3.55;82.32
68274;SHT30;55104;47.356;19.448;2023-04-28T04:15:54;3.62;82.06
68274;SHT30;55104;47.356;19.448;2023-04-28T04:18:58;3.77;81.61
68274;SHT30;55104;47.356;19.448;2023-04-28T04:22:17;3.84;81.92
68274;SHT30;55104;47.356;19.448;2023-04-28T04:25:19;3.88;82.04
68274;SHT30;55104;47.356;19.448;2023-04-28T04:28:24;3.98;81.71
68274;SHT30;55104;47.356;19.448;2023-04-28T04:31:27;4.06;81.46
68274;SHT30;55104;47.356;19.448;2023-04-28T04:34:29;4.19;81.46
68274;SHT30;55104;47.356;19.448;2023-04-28T04:37:32;4.30;81.17
68274;SHT30;55104;47.356;19.448;2023-04-28T04:40:36;4.38;81.17
68274;SHT30;55104;47.356;19.448;2023-04-28T04:43:38;4.54;80.79
68274;SHT30;55104;47.356;19.448;2023-04-28T04:46:40;4.64;80.77
68274;SHT30;55104;47.356;19.448;2023-04-28T04:49:42;4.76;80.57
68274;SHT30;55104;47.356;19.448;2023-04-28T04:52:45;4.92;80.28
68274;SHT30;55104;47.356;19.448;2023-04-28T04:55:47;5.09;80.43
68274;SHT30;55104;47.356;19.448;2023-04-28T04:58:50;5.21;80.28
68274;SHT30;55104;47.356;19.448;2023-04-28T05:02:11;5.38;79.57
68274;SHT30;55104;47.356;19.448;2023-04-28T05:05:13;5.54;79.18
68274;SHT30;55104;47.356;19.448;2023-04-28T05:08:39;5.78;78.57
68274;SHT30;55104;47.356;19.448;2023-04-28T05:11:41;5.98;77.74
68274;SHT30;55104;47.356;19.448;2023-04-28T05:14:43;6.25;77.31
68274;SHT30;55104;47.356;19.448;2023-04-28T05:17:45;6.40;76.58
68274;SHT30;55104;47.356;19.448;2023-04-28T05:20:47;6.60;74.50
68274;SHT30;55104;47.356;19.448;2023-04-28T05:23:52;6.77;74.36
68274;SHT30;55104;47.356;19.448;2023-04-28T05:26:57;6.98;72.14
68274;SHT30;55104;47.356;19.448;2023-04-28T05:29:59;7.12;70.93
68274;SHT30;55104;47.356;19.448;2023-04-28T05:33:02;7.26;72.37
68274;SHT30;55104;47.356;19.448;2023-04-28T05:36:05;7.40;73.42
68274;SHT30;55104;47.356;19.448;2023-04-28T05:39:12;7.52;71.95
68274;SHT30;55104;47.356;19.448;2023-04-28T05:42:15;7.80;70.97
68274;SHT30;55104;47.356;19.448;2023-04-28T05:45:18;7.91;68.54
68274;SHT30;55104;47.356;19.448;2023-04-28T05:48:20;8.03;68.67
68274;SHT30;55104;47.356;19.448;2023-04-28T05:51:23;8.09;68.08
68274;SHT30;55104;47.356;19.448;2023-04-28T05:54:25;8.25;68.22
68274;SHT30;55104;47.356;19.448;2023-04-28T05:57:30;8.30;68.46
68274;SHT30;55104;47.356;19.448;2023-04-28T06:00:43;8.47;67.63
68274;SHT30;55104;47.356;19.448;2023-04-28T06:03:45;8.61;68.91
68274;SHT30;55104;47.356;19.448;2023-04-28T06:06:48;8.73;68.53
68274;SHT30;55104;47.356;19.448;2023-04-28T06:09:50;8.88;68.50
68274;SHT30;55104;47.356;19.448;2023-04-28T06:12:52;9.18;67.58
68274;SHT30;55104;47.356;19.448;2023-04-28T06:15:54;9.38;66.23
68274;SHT30;55104;47.356;19.448;2023-04-28T06:18:56;9.56;66.24
68274;SHT30;55104;47.356;19.448;2023-04-28T06:21:59;9.66;65.27
68274;SHT30;55104;47.356;19.448;2023-04-28T06:25:01;9.83;64.49
68274;SHT30;55104;47.356;19.448;2023-04-28T06:28:09;9.90;64.98
68274;SHT30;55104;47.356;19.448;2023-04-28T06:31:13;10.19;63.09
68274;SHT30;55104;47.356;19.448;2023-04-28T06:34:15;10.29;63.02
68274;SHT30;55104;47.356;19.448;2023-04-28T06:37:17;10.45;64.38
68274;SHT30;55104;47.356;19.448;2023-04-28T06:40:21;10.66;63.44
68274;SHT30;55104;47.356;19.448;2023-04-28T06:43:29;10.74;63.04
68274;SHT30;55104;47.356;19.448;2023-04-28T06:46:54;10.95;61.69
68274;SHT30;55104;47.356;19.448;2023-04-28T06:49:56;11.05;62.31
68274;SHT30;55104;47.356;19.448;2023-04-28T06:52:58;11.21;61.36
68274;SHT30;55104;47.356;19.448;2023-04-28T06:56:04;11.44;62.38
68274;SHT30;55104;47.356;19.448;2023-04-28T06:59:06;11.63;59.67
68274;SHT30;55104;47.356;19.448;2023-04-28T07:02:11;11.71;57.67
68274;SHT30;55104;47.356;19.448;2023-04-28T07:05:13;11.67;59.66
68274;SHT30;55104;47.356;19.448;2023-04-28T07:08:17;11.69;58.15
68274;SHT30;55104;47.356;19.448;2023-04-28T07:11:19;11.74;59.54
68274;SHT30;55104;47.356;19.448;2023-04-28T07:14:21;11.91;59.54
68274;SHT30;55104;47.356;19.448;2023-04-28T07:17:23;12.22;60.11
68274;SHT30;55104;47.356;19.448;2023-04-28T07:20:26;12.46;58.60
68274;SHT30;55104;47.356;19.448;2023-04-28T07:23:28;12.53;56.97
68274;SHT30;55104;47.356;19.448;2023-04-28T07:26:32;12.66;58.09
68274;SHT30;55104;47.356;19.448;2023-04-28T07:29:34;12.88;55.79
68274;SHT30;55104;47.356;19.448;2023-04-28T07:32:36;13.05;56.96
68274;SHT30;55104;47.356;19.448;2023-04-28T07:35:38;13.12;55.18
68274;SHT30;55104;47.356;19.448;2023-04-28T07:38:40;13.28;54.31
68274;SHT30;55104;47.356;19.448;2023-04-28T07:41:42;13.51;55.18
68274;SHT30;55104;47.356;19.448;2023-04-28T07:44:44;13.38;53.16
68274;SHT30;55104;47.356;19.448;2023-04-28T07:47:47;13.51;54.69
68274;SHT30;55104;47.356;19.448;2023-04-28T07:50:49;13.96;53.26
68274;SHT30;55104;47.356;19.448;2023-04-28T07:53:51;14.18;51.21
68274;SHT30;55104;47.356;19.448;2023-04-28T07:56:55;14.24;51.49
68274;SHT30;55104;47.356;19.448;2023-04-28T07:59:58;14.46;51.50
68274;SHT30;55104;47.356;19.448;2023-04-28T08:03:01;14.65;49.60
68274;SHT30;55104;47.356;19.448;2023-04-28T08:06:03;14.70;48.36
68274;SHT30;55104;47.356;19.448;2023-04-28T08:09:06;14.96;49.48
68274;SHT30;55104;47.356;19.448;2023-04-28T08:12:08;15.17;45.98
68274;SHT30;55104;47.356;19.448;2023-04-28T08:15:10;15.14;46.97
68274;SHT30;55104;47.356;19.448;2023-04-28T08:18:13;15.07;47.53
68274;SHT30;55104;47.356;19.448;2023-04-28T08:21:15;15.16;47.35
68274;SHT30;55104;47.356;19.448;2023-04-28T08:24:17;15.38;45.94
68274;SHT30;55104;47.356;19.448;2023-04-28T08:27:19;15.28;46.68
68274;SHT30;55104;47.356;19.448;2023-04-28T08:30:21;15.46;47.62
68274;SHT30;55104;47.356;19.448;2023-04-28T08:33:23;15.62;46.64
68274;SHT30;55104;47.356;19.448;2023-04-28T08:36:25;15.58;43.85
68274;SHT30;55104;47.356;19.448;2023-04-28T08:39:32;15.62;45.98
68274;SHT30;55104;47.356;19.448;2023-04-28T08:42:36;15.65;44.86
68274;SHT30;55104;47.356;19.448;2023-04-28T08:45:42;15.82;44.53
68274;SHT30;55104;47.356;19.448;2023-04-28T08:48:48;15.90;45.13
68274;SHT30;55104;47.356;19.448;2023-04-28T08:52:00;16.01;45.61
68274;SHT30;55104;47.356;19.448;2023-04-28T08:55:09;16.22;45.26
68274;SHT30;55104;47.356;19.448;2023-04-28T08:58:12;16.38;42.07
68274;SHT30;55104;47.356;19.448;2023-04-28T09:01:15;16.56;41.19
68274;SHT30;55104;47.356;19.448;2023-04-28T09:04:18;16.69;40.48
68274;SHT30;55104;47.356;19.448;2023-04-28T09:07:21;16.54;38.33
68274;SHT30;55104;47.356;19.448;2023-04-28T09:10:24;16.54;39.54
68274;SHT30;55104;47.356;19.448;2023-04-28T09:13:29;16.56;40.86
68274;SHT30;55104;47.356;19.448;2023-04-28T09:16:41;16.49;42.50
68274;SHT30;55104;47.356;19.448;2023-04-28T09:19:43;16.48;41.39
68274;SHT30;55104;47.356;19.448;2023-04-28T09:22:45;16.77;42.32
68274;SHT30;55104;47.356;19.448;2023-04-28T09:26:02;16.76;41.15
68274;SHT30;55104;47.356;19.448;2023-04-28T09:29:11;17.10;40.15
68274;SHT30;55104;47.356;19.448;2023-04-28T09:32:20;17.20;40.19
68274;SHT30;55104;47.356;19.448;2023-04-28T09:35:39;17.24;40.09
68274;SHT30;55104;47.356;19.448;2023-04-28T09:38:44;17.44;39.88
68274;SHT30;55104;47.356;19.448;2023-04-28T09:41:47;17.72;38.48
68274;SHT30;55104;47.356;19.448;2023-04-28T09:44:52;17.69;37.51
68274;SHT30;55104;47.356;19.448;2023-04-28T09:48:08;17.52;37.89
68274;SHT30;55104;47.356;19.448;2023-04-28T09:51:19;17.65;37.78
68274;SHT30;55104;47.356;19.448;2023-04-28T09:54:21;17.62;38.30
68274;SHT30;55104;47.356;19.448;2023-04-28T09:57:25;17.09;37.01
68274;SHT30;55104;47.356;19.448;2023-04-28T10:00:29;17.11;37.37
68274;SHT30;55104;47.356;19.448;2023-04-28T10:03:34;17.44;39.31
68274;SHT30;55104;47.356;19.448;2023-04-28T10:06:37;17.97;37.70
68274;SHT30;55104;47.356;19.448;2023-04-28T10:09:39;17.65;37.53
68274;SHT30;55104;47.356;19.448;2023-04-28T10:12:54;18.07;38.90
68274;SHT30;55104;47.356;19.448;2023-04-28T10:15:56;18.20;39.90
68274;SHT30;55104;47.356;19.448;2023-04-28T10:19:00;17.93;38.30
68274;SHT30;55104;47.356;19.448;2023-04-28T10:25:36;17.56;37.90
68274;SHT30;55104;47.356;19.448;2023-04-28T10:28:44;18.24;39.33
68274;SHT30;55104;47.356;19.448;2023-04-28T10:38:23;18.43;35.63
68274;SHT30;55104;47.356;19.448;2023-04-28T10:41:31;18.91;37.32
68274;SHT30;55104;47.356;19.448;2023-04-28T10:48:08;19.06;37.27
68274;SHT30;55104;47.356;19.448;2023-04-28T10:54:15;19.37;37.19
68274;SHT30;55104;47.356;19.448;2023-04-28T10:57:18;19.31;36.52
68274;SHT30;55104;47.356;19.448;2023-04-28T11:00:27;19.46;37.42
68274;SHT30;55104;47.356;19.448;2023-04-28T11:07:08;19.19;37.93
68274;SHT30;55104;47.356;19.448;2023-04-28T11:10:10;19.24;39.16
68274;SHT30;55104;47.356;19.448;2023-04-28T11:13:28;19.41;37.38
68274;SHT30;55104;47.356;19.448;2023-04-28T11:16:50;19.59;36.47
68274;SHT30;55104;47.356;19.448;2023-04-28T11:19:55;19.55;37.84
68274;SHT30;55104;47.356;19.448;2023-04-28T11:22:58;19.65;36.16
68274;SHT30;55104;47.356;19.448;2023-04-28T11:26:00;19.89;37.64
68274;SHT30;55104;47.356;19.448;2023-04-28T11:29:02;20.06;37.62
68274;SHT30;55104;47.356;19.448;2023-04-28T11:32:06;20.20;36.86
68274;SHT30;55104;47.356;19.448;2023-04-28T11:35:09;19.58;35.85
68274;SHT30;55104;47.356;19.448;2023-04-28T11:38:11;19.24;36.77
68274;SHT30;55104;47.356;19.448;2023-04-28T11:41:13;18.99;37.33
68274;SHT30;55104;47.356;19.448;2023-04-28T11:44:18;19.06;38.53
68274;SHT30;55104;47.356;19.448;2023-04-28T11:47:33;18.96;38.03
68274;SHT30;55104;47.356;19.448;2023-04-28T11:50:36;19.14;38.61
68274;SHT30;55104;47.356;19.448;2023-04-28T11:53:44;19.23;37.28
68274;SHT30;55104;47.356;19.448;2023-04-28T11:56:46;19.07;38.41
68274;SHT30;55104;47.356;19.448;2023-04-28T11:59:48;19.03;38.88
68274;SHT30;55104;47.356;19.448;2023-04-28T12:02:51;18.99;36.54
68274;SHT30;55104;47.356;19.448;2023-04-28T12:05:54;19.00;36.67
68274;SHT30;55104;47.356;19.448;2023-04-28T12:08:56;18.89;36.11
68274;SHT30;55104;47.356;19.448;2023-04-28T12:12:04;18.88;37.33
68274;SHT30;55104;47.356;19.448;2023-04-28T12:15:08;19.75;36.36
68274;SHT30;55104;47.356;19.448;2023-04-28T12:18:10;20.00;35.98
68274;SHT30;55104;47.356;19.448;2023-04-28T12:21:22;20.33;35.62
68274;SHT30;55104;47.356;19.448;2023-04-28T12:24:24;20.14;34.52
68274;SHT30;55104;47.356;19.448;2023-04-28T12:27:27;19.66;36.03
68274;SHT30;55104;47.356;19.448;2023-04-28T12:30:32;18.73;36.90
68274;SHT30;55104;47.356;19.448;2023-04-28T12:33:34;18.77;37.27
68274;SHT30;55104;47.356;19.448;2023-04-28T12:36:40;18.66;38.77
68274;SHT30;55104;47.356;19.448;2023-04-28T12:39:42;18.88;38.40
68274;SHT30;55104;47.356;19.448;2023-04-28T12:42:45;18.95;38.99
68274;SHT30;55104;47.356;19.448;2023-04-28T12:45:47;19.32;38.47
68274;SHT30;55104;47.356;19.448;2023-04-28T12:48:49;19.47;36.25
68274;SHT30;55104;47.356;19.448;2023-04-28T12:51:52;19.44;36.91
68274;SHT30;55104;47.356;19.448;2023-04-28T12:54:54;19.65;37.39
68274;SHT30;55104;47.356;19.448;2023-04-28T12:57:56;20.06;37.49
68274;SHT30;55104;47.356;19.448;2023-04-28T13:00:58;20.44;36.41
68274;SHT30;55104;47.356;19.448;2023-04-28T13:04:00;20.34;35.55
68274;SHT30;55104;47.356;19.448;2023-04-28T13:07:02;20.44;36.27
68274;SHT30;55104;47.356;19.448;2023-04-28T13:10:05;20.17;36.82
68274;SHT30;55104;47.356;19.448;2023-04-28T13:13:09;20.43;36.03
68274;SHT30;55104;47.356;19.448;2023-04-28T13:16:11;20.48;35.59
68274;SHT30;55104;47.356;19.448;2023-04-28T13:19:15;19.95;36.99
68274;SHT30;55104;47.356;19.448;2023-04-28T13:22:18;19.71;36.54
68274;SHT30;55104;47.356;19.448;2023-04-28T13:25:20;19.71;36.46
68274;SHT30;55104;47.356;19.448;2023-04-28T13:28:23;19.41;36.74
68274;SHT30;55104;47.356;19.448;2023-04-28T13:31:25;19.40;37.75
68274;SHT30;55104;47.356;19.448;2023-04-28T13:34:28;19.26;37.61
68274;SHT30;55104;47.356;19.448;2023-04-28T13:37:30;19.10;40.12
68274;SHT30;55104;47.356;19.448;2023-04-28T13:40:33;19.13;37.54
68274;SHT30;55104;47.356;19.448;2023-04-28T13:43:35;19.04;37.90
68274;SHT30;55104;47.356;19.448;2023-04-28T13:46:37;18.81;38.23
68274;SHT30;55104;47.356;19.448;2023-04-28T13:49:41;18.91;38.02
68274;SHT30;55104;47.356;19.448;2023-04-28T13:52:43;18.99;38.54
68274;SHT30;55104;47.356;19.448;2023-04-28T13:55:48;18.83;39.02
68274;SHT30;55104;47.356;19.448;2023-04-28T13:58:51;18.82;40.60
68274;SHT30;55104;47.356;19.448;2023-04-28T14:01:54;18.69;38.99
68274;SHT30;55104;47.356;19.448;2023-04-28T14:04:56;18.77;39.81
68274;SHT30;55104;47.356;19.448;2023-04-28T14:07:58;18.73;38.28
68274;SHT30;55104;47.356;19.448;2023-04-28T14:11:02;18.54;39.65
68274;SHT30;55104;47.356;19.448;2023-04-28T14:14:04;18.41;39.33
68274;SHT30;55104;47.356;19.448;2023-04-28T14:17:07;18.28;38.84
68274;SHT30;55104;47.356;19.448;2023-04-28T14:20:10;18.30;39.62
68274;SHT30;55104;47.356;19.448;2023-04-28T14:23:13;18.34;40.23
68274;SHT30;55104;47.356;19.448;2023-04-28T14:26:16;18.47;40.06
68274;SHT30;55104;47.356;19.448;2023-04-28T14:29:18;18.55;40.02
68274;SHT30;55104;47.356;19.448;2023-04-28T14:32:20;18.62;40.25
68274;SHT30;55104;47.356;19.448;2023-04-28T14:35:23;18.24;39.60
68274;SHT30;55104;47.356;19.448;2023-04-28T14:38:25;18.26;40.89
68274;SHT30;55104;47.356;19.448;2023-04-28T14:41:27;18.09;40.32
68274;SHT30;55104;47.356;19.448;2023-04-28T14:44:29;18.11;40.65
68274;SHT30;55104;47.356;19.448;2023-04-28T14:47:32;17.99;40.95
68274;SHT30;55104;47.356;19.448;2023-04-28T14:50:34;17.81;41.43
68274;SHT30;55104;47.356;19.448;2023-04-28T14:53:37;17.71;41.45
68274;SHT30;55104;47.356;19.448;2023-04-28T14:56:39;17.62;42.16
68274;SHT30;55104;47.356;19.448;2023-04-28T14:59:41;17.55;42.26
68274;SHT30;55104;47.356;19.448;2023-04-28T15:02:44;17.61;42.15
68274;SHT30;55104;47.356;19.448;2023-04-28T15:05:46;17.64;42.39
68274;SHT30;55104;47.356;19.448;2023-04-28T15:08:48;17.69;42.19
68274;SHT30;55104;47.356;19.448;2023-04-28T15:11:51;17.61;42.71
68274;SHT30;55104;47.356;19.448;2023-04-28T15:14:53;17.71;42.61
68274;SHT30;55104;47.356;19.448;2023-04-28T15:17:55;17.78;41.76
68274;SHT30;55104;47.356;19.448;2023-04-28T15:21:01;17.82;41.77
68274;SHT30;55104;47.356;19.448;2023-04-28T15:24:04;17.81;42.88
68274;SHT30;55104;47.356;19.448;2023-04-28T15:27:07;17.82;42.36
68274;SHT30;55104;47.356;19.448;2023-04-28T15:30:09;17.86;42.19
68274;SHT30;55104;47.356;19.448;2023-04-28T15:33:12;17.75;42.73
68274;SHT30;55104;47.356;19.448;2023-04-28T15:36:18;17.71;42.06
68274;SHT30;55104;47.356;19.448;2023-04-28T15:39:21;17.59;41.64
68274;SHT30;55104;47.356;19.448;2023-04-28T15:42:25;17.48;42.60
68274;SHT30;55104;47.356;19.448;2023-04-28T15:45:29;17.45;42.56
68274;SHT30;55104;47.356;19.448;2023-04-28T15:48:32;17.34;43.14
68274;SHT30;55104;47.356;19.448;2023-04-28T15:51:34;17.35;43.28
68274;SHT30;55104;47.356;19.448;2023-04-28T15:54:36;17.31;42.65
68274;SHT30;55104;47.356;19.448;2023-04-28T15:57:40;17.20;43.81
68274;SHT30;55104;47.356;19.448;2023-04-28T16:00:44;17.16;43.73
68274;SHT30;55104;47.356;19.448;2023-04-28T16:03:46;17.10;43.86
68274;SHT30;55104;47.356;19.448;2023-04-28T16:06:50;17.07;44.19
68274;SHT30;55104;47.356;19.448;2023-04-28T16:09:53;16.96;44.47
68274;SHT30;55104;47.356;19.448;2023-04-28T16:12:56;16.94;45.13
68274;SHT30;55104;47.356;19.448;2023-04-28T16:15:58;16.90;45.77
68274;SHT30;55104;47.356;19.448;2023-04-28T16:19:00;16.90;45.97
68274;SHT30;55104;47.356;19.448;2023-04-28T16:22:02;16.80;45.54
68274;SHT30;55104;47.356;19.448;2023-04-28T16:25:04;16.76;46.13
68274;SHT30;55104;47.356;19.448;2023-04-28T16:28:07;16.65;45.80
68274;SHT30;55104;47.356;19.448;2023-04-28T16:31:10;16.59;46.69
68274;SHT30;55104;47.356;19.448;2023-04-28T16:34:12;16.47;47.08
68274;SHT30;55104;47.356;19.448;2023-04-28T16:37:14;16.45;47.45
68274;SHT30;55104;47.356;19.448;2023-04-28T16:40:17;16.37;47.04
68274;SHT30;55104;47.356;19.448;2023-04-28T16:43:19;16.20;47.16
68274;SHT30;55104;47.356;19.448;2023-04-28T16:46:21;16.13;47.69
68274;SHT30;55104;47.356;19.448;2023-04-28T16:49:24;16.03;48.35
68274;SHT30;55104;47.356;19.448;2023-04-28T16:52:26;15.93;48.62
68274;SHT30;55104;47.356;19.448;2023-04-28T16:55:28;15.93;49.17
68274;SHT30;55104;47.356;19.448;2023-04-28T16:58:31;15.86;49.24
68274;SHT30;55104;47.356;19.448;2023-04-28T17:01:33;15.79;49.94
68274;SHT30;55104;47.356;19.448;2023-04-28T17:04:35;15.74;49.86
68274;SHT30;55104;47.356;19.448;2023-04-28T17:07:39;15.63;50.14
68274;SHT30;55104;47.356;19.448;2023-04-28T17:10:41;15.61;50.66
68274;SHT30;55104;47.356;19.448;2023-04-28T17:13:43;15.61;51.22
68274;SHT30;55104;47.356;19.448;2023-04-28T17:16:45;15.49;51.82
68274;SHT30;55104;47.356;19.448;2023-04-28T17:19:47;15.38;52.26
68274;SHT30;55104;47.356;19.448;2023-04-28T17:22:49;15.30;51.66
68274;SHT30;55104;47.356;19.448;2023-04-28T17:25:52;15.27;51.60
68274;SHT30;55104;47.356;19.448;2023-04-28T17:28:54;15.14;52.31
68274;SHT30;55104;47.356;19.448;2023-04-28T17:31:56;15.10;52.18
68274;SHT30;55104;47.356;19.448;2023-04-28T17:34:59;15.06;51.93
68274;SHT30;55104;47.356;19.448;2023-04-28T17:38:01;14.94;52.14
68274;SHT30;55104;47.356;19.448;2023-04-28T17:41:03;14.90;51.91
68274;SHT30;55104;47.356;19.448;2023-04-28T17:44:05;14.90;51.27
68274;SHT30;55104;47.356;19.448;2023-04-28T17:47:08;14.80;51.31
68274;SHT30;55104;47.356;19.448;2023-04-28T17:50:10;14.79;50.65
68274;SHT30;55104;47.356;19.448;2023-04-28T17:53:13;14.77;50.18
68274;SHT30;55104;47.356;19.448;2023-04-28T17:56:15;14.68;50.95
68274;SHT30;55104;47.356;19.448;2023-04-28T17:59:18;14.65;51.21
68274;SHT30;55104;47.356;19.448;2023-04-28T18:02:20;14.58;51.41
68274;SHT30;55104;47.356;19.448;2023-04-28T18:05:22;14.56;52.72
68274;SHT30;55104;47.356;19.448;2023-04-28T18:08:37;14.51;52.80
68274;SHT30;55104;47.356;19.448;2023-04-28T18:11:39;14.46;53.11
68274;SHT30;55104;47.356;19.448;2023-04-28T18:14:41;14.39;53.78
68274;SHT30;55104;47.356;19.448;2023-04-28T18:17:45;14.29;54.62
68274;SHT30;55104;47.356;19.448;2023-04-28T18:20:47;14.29;54.46
68274;SHT30;55104;47.356;19.448;2023-04-28T18:23:49;14.24;54.67
68274;SHT30;55104;47.356;19.448;2023-04-28T18:26:51;14.21;54.91
68274;SHT30;55104;47.356;19.448;2023-04-28T18:29:53;14.15;54.54
68274;SHT30;55104;47.356;19.448;2023-04-28T18:32:55;14.07;54.68
68274;SHT30;55104;47.356;19.448;2023-04-28T18:36:02;14.03;54.77
68274;SHT30;55104;47.356;19.448;2023-04-28T18:39:06;14.00;55.05
68274;SHT30;55104;47.356;19.448;2023-04-28T18:42:10;13.97;55.19
68274;SHT30;55104;47.356;19.448;2023-04-28T18:45:12;13.96;55.52
68274;SHT30;55104;47.356;19.448;2023-04-28T18:48:15;13.91;55.89
68274;SHT30;55104;47.356;19.448;2023-04-28T18:51:18;13.84;56.05
68274;SHT30;55104;47.356;19.448;2023-04-28T18:54:20;13.80;56.29
68274;SHT30;55104;47.356;19.448;2023-04-28T18:57:22;13.79;56.99
68274;SHT30;55104;47.356;19.448;2023-04-28T19:00:24;13.73;56.83
68274;SHT30;55104;47.356;19.448;2023-04-28T19:03:27;13.70;57.24
68274;SHT30;55104;47.356;19.448;2023-04-28T19:06:31;13.69;57.20
68274;SHT30;55104;47.356;19.448;2023-04-28T19:09:33;13.66;57.38
68274;SHT30;55104;47.356;19.448;2023-04-28T19:12:35;13.62;57.18
68274;SHT30;55104;47.356;19.448;2023-04-28T19:15:37;13.60;57.35
68274;SHT30;55104;47.356;19.448;2023-04-28T19:18:40;13.56;57.32
68274;SHT30;55104;47.356;19.448;2023-04-28T19:21:42;13.55;57.48
68274;SHT30;55104;47.356;19.448;2023-04-28T19:24:45;13.49;58.04